Time;durP1;ratioP1;P1;durP2;ratioP2;P2;SDS_P1;SDS_P2;PMS_P1;PMS_P2;Temp;Humidity;BMP_temperature;BMP_pressure;BME280_temperature;BME280_humidity;BME280_pressure;Samples;Min_cycle;Max_cycle;Signal;HPM_P1;HPM_P2
2023/12/21 00:02:08;;;;;;;36.90;22.58;;;;;;;5.23;91.63;99245.50;5161891;27;20384;-67
2023/12/21 00:04:34;;;;;;;46.03;23.85;;;;;;;5.20;92.05;99232.63;5162285;27;20037;-65
2023/12/21 00:07:00;;;;;;;86.63;40.88;;;;;;;5.24;91.86;99232.25;5162069;27;20031;-67
2023/12/21 00:09:26;;;;;;;178.05;88.25;;;;;;;5.37;91.76;99216.19;5162910;27;20102;-65
2023/12/21 00:11:51;;;;;;;115.38;63.70;;;;;;;5.46;91.53;99228.47;5162240;27;20328;-67
2023/12/21 00:14:16;;;;;;;91.15;51.47;;;;;;;5.48;90.89;99236.19;5161981;27;20031;-65
2023/12/21 00:16:42;;;;;;;75.63;45.88;;;;;;;5.54;90.09;99225.13;5162729;27;20043;-66
2023/12/21 00:19:07;;;;;;;61.97;38.35;;;;;;;5.57;90.05;99219.59;5161837;27;20042;-66
2023/12/21 00:21:33;;;;;;;56.95;32.00;;;;;;;5.60;89.33;99227.19;5161854;27;20047;-64
2023/12/21 00:23:58;;;;;;;55.58;30.35;;;;;;;5.50;89.67;99221.97;5161291;27;20035;-67
2023/12/21 00:26:23;;;;;;;47.75;25.10;;;;;;;5.53;89.91;99218.22;5161004;27;20053;-66
2023/12/21 00:28:49;;;;;;;42.00;25.20;;;;;;;5.51;90.40;99233.28;5160705;27;20034;-64
2023/12/21 00:31:14;;;;;;;41.65;23.05;;;;;;;5.55;89.98;99227.63;5161128;27;20083;-65
2023/12/21 00:33:40;;;;;;;39.28;23.15;;;;;;;5.45;88.74;99225.00;5160965;27;20042;-66
2023/12/21 00:36:05;;;;;;;42.92;25.25;;;;;;;5.29;89.76;99213.44;5161429;27;20046;-66
2023/12/21 00:38:31;;;;;;;43.33;22.75;;;;;;;5.30;90.77;99220.34;5161780;27;20140;-65
2023/12/21 00:40:59;;;;;;;37.63;20.90;;;;;;;5.37;90.70;99226.69;5162062;27;20045;-67
2023/12/21 00:43:25;;;;;;;37.13;20.70;;;;;;;5.38;91.05;99220.47;5160896;27;20332;-66
2023/12/21 00:45:50;;;;;;;39.15;22.42;;;;;;;5.48;89.92;99225.69;5161698;27;20062;-67
2023/12/21 00:48:15;;;;;;;45.45;25.17;;;;;;;5.52;90.17;99220.00;5161384;27;20049;-67
2023/12/21 00:50:41;;;;;;;40.65;24.42;;;;;;;5.55;89.04;99224.97;5161335;27;20050;-66
2023/12/21 00:53:06;;;;;;;41.05;24.45;;;;;;;5.52;89.11;99213.94;5161153;27;20043;-66
2023/12/21 00:55:32;;;;;;;47.67;23.65;;;;;;;5.49;89.40;99208.97;5161369;27;20045;-66
2023/12/21 00:57:58;;;;;;;43.17;22.45;;;;;;;5.44;88.91;99206.78;5160448;27;20419;-67
2023/12/21 01:00:24;;;;;;;38.45;23.88;;;;;;;5.32;89.20;99202.66;5160308;27;20031;-66
2023/12/21 01:02:49;;;;;;;41.17;22.33;;;;;;;5.36;89.64;99204.03;5160168;27;20053;-67
2023/12/21 01:05:14;;;;;;;39.22;22.30;;;;;;;5.37;89.21;99190.75;5160034;27;20046;-64
2023/12/21 01:07:41;;;;;;;43.35;23.80;;;;;;;5.07;90.84;99183.06;5160096;27;20034;-67
2023/12/21 01:10:07;;;;;;;37.63;21.65;;;;;;;4.96;91.89;99177.97;5160623;27;20368;-65
2023/12/21 01:12:33;;;;;;;36.58;20.48;;;;;;;5.07;90.75;99180.44;5160995;27;20030;-67
2023/12/21 01:15:00;;;;;;;40.88;22.15;;;;;;;4.97;91.28;99192.75;5161108;27;20034;-64
2023/12/21 01:17:25;;;;;;;43.90;21.52;;;;;;;5.00;90.60;99184.59;5161335;27;20098;-64
2023/12/21 01:19:51;;;;;;;37.08;21.98;;;;;;;4.94;90.79;99185.16;5161022;27;20057;-65
2023/12/21 01:22:16;;;;;;;37.70;21.33;;;;;;;4.90;91.67;99183.78;5160469;27;20035;-65
2023/12/21 01:24:42;;;;;;;35.25;21.08;;;;;;;4.91;91.96;99170.53;5160797;27;20316;-67
2023/12/21 01:27:07;;;;;;;40.00;23.10;;;;;;;4.73;93.44;99173.03;5160503;27;20674;-66
2023/12/21 01:29:32;;;;;;;49.58;26.55;;;;;;;4.66;95.14;99171.91;5160296;27;20035;-67
2023/12/21 01:31:58;;;;;;;46.38;25.40;;;;;;;4.66;95.39;99164.06;5160053;27;20038;-66
2023/12/21 01:34:23;;;;;;;47.13;26.85;;;;;;;4.72;95.75;99179.22;5160419;27;20033;-64
2023/12/21 01:36:49;;;;;;;47.45;27.45;;;;;;;4.57;95.87;99177.16;5161198;27;20042;-64
2023/12/21 01:39:14;;;;;;;47.22;27.23;;;;;;;4.60;97.42;99184.75;5160181;27;20075;-66
2023/12/21 01:41:40;;;;;;;51.45;30.02;;;;;;;4.45;96.46;99190.41;5161358;27;20317;-64
2023/12/21 01:44:05;;;;;;;51.88;27.65;;;;;;;4.38;97.26;99175.38;5160403;27;20063;-65
2023/12/21 01:46:32;;;;;;;47.53;26.13;;;;;;;4.23;96.50;99158.38;5161033;27;20043;-64
2023/12/21 01:48:57;;;;;;;49.85;28.65;;;;;;;4.24;97.02;99167.91;5160350;27;20101;-66
2023/12/21 01:51:23;;;;;;;40.75;24.70;;;;;;;4.16;96.57;99172.03;5161385;27;20046;-66
2023/12/21 01:53:51;;;;;;;41.83;23.05;;;;;;;4.20;96.20;99169.13;5161184;27;20262;-64
2023/12/21 01:56:20;;;;;;;39.58;23.27;;;;;;;4.25;96.10;99174.78;5160798;27;20043;-66
2023/12/21 01:58:48;;;;;;;39.75;24.20;;;;;;;4.21;95.82;99166.38;5160542;27;20038;-66
2023/12/21 02:01:17;;;;;;;40.70;22.80;;;;;;;4.37;95.32;99153.56;5159928;27;20045;-64
2023/12/21 02:03:43;;;;;;;41.17;21.75;;;;;;;4.46;94.32;99159.78;5159650;27;20385;-66
2023/12/21 02:06:08;;;;;;;36.03;20.27;;;;;;;4.33;93.74;99165.28;5160367;27;20042;-66
2023/12/21 02:08:34;;;;;;;30.02;18.33;;;;;;;4.28;94.41;99159.63;5159826;27;20030;-64
2023/12/21 02:11:00;;;;;;;36.42;19.90;;;;;;;4.35;94.41;99147.63;5159384;27;20043;-65
2023/12/21 02:13:25;;;;;;;29.42;17.05;;;;;;;4.51;93.87;99151.50;5158735;27;20035;-64
2023/12/21 02:15:53;;;;;;;33.05;18.30;;;;;;;4.53;92.76;99149.56;5159758;27;20060;-64
2023/12/21 02:18:20;;;;;;;30.85;17.13;;;;;;;4.54;92.44;99154.66;5159377;27;20347;-64
2023/12/21 02:20:46;;;;;;;31.17;17.33;;;;;;;4.54;92.48;99143.34;5160012;27;20030;-64
2023/12/21 02:23:14;;;;;;;27.38;16.10;;;;;;;4.65;91.73;99141.41;5160386;27;20035;-67
2023/12/21 02:25:39;;;;;;;30.95;16.95;;;;;;;4.69;90.47;99139.34;5160283;27;20035;-65
2023/12/21 02:28:05;;;;;;;32.13;16.95;;;;;;;4.72;89.99;99133.81;5159243;27;20039;-66
2023/12/21 02:30:30;;;;;;;27.23;15.52;;;;;;;4.75;89.36;99136.16;5159444;27;20046;-65
2023/12/21 02:32:57;;;;;;;27.17;16.55;;;;;;;4.66;88.94;99123.88;5159066;27;20041;-64
2023/12/21 02:35:22;;;;;;;31.00;17.58;;;;;;;4.70;89.06;99131.34;5159534;27;20039;-66
2023/12/21 02:37:47;;;;;;;26.45;15.77;;;;;;;4.79;87.90;99132.28;5159263;27;20045;-67
2023/12/21 02:40:13;;;;;;;28.42;16.08;;;;;;;4.76;87.33;99129.94;5159611;27;20034;-67
2023/12/21 02:42:38;;;;;;;29.77;16.25;;;;;;;4.78;86.73;99131.47;5158425;27;20075;-66
2023/12/21 02:45:04;;;;;;;29.58;19.05;;;;;;;4.72;86.63;99126.78;5158758;27;20029;-66
2023/12/21 02:47:29;;;;;;;24.20;15.77;;;;;;;4.68;86.99;99127.19;5158513;27;20034;-64
2023/12/21 02:49:55;;;;;;;31.75;18.00;;;;;;;4.75;86.96;99123.06;5159172;27;20035;-67
2023/12/21 02:52:20;;;;;;;30.02;20.08;;;;;;;4.84;86.34;99122.22;5159519;27;20067;-65
2023/12/21 02:54:46;;;;;;;28.80;15.80;;;;;;;4.82;84.94;99121.53;5159475;27;20046;-65
2023/12/21 02:57:11;;;;;;;27.75;14.75;;;;;;;4.73;83.21;99119.75;5159347;27;20097;-66
2023/12/21 02:59:36;;;;;;;23.52;15.38;;;;;;;4.67;82.00;99115.88;5159354;27;20030;-67
2023/12/21 03:02:02;;;;;;;28.02;15.82;;;;;;;4.62;84.41;99112.84;5158895;27;20086;-66
2023/12/21 03:04:27;;;;;;;26.67;15.95;;;;;;;4.60;85.71;99116.59;5159696;27;20050;-67
2023/12/21 03:06:53;;;;;;;29.02;17.52;;;;;;;4.58;86.33;99108.84;5159259;27;20037;-66
2023/12/21 03:09:19;;;;;;;28.67;17.65;;;;;;;4.68;87.01;99120.16;5159093;27;20034;-66
2023/12/21 03:11:44;;;;;;;33.55;18.67;;;;;;;4.77;86.83;99111.44;5158906;27;20157;-67
2023/12/21 03:14:10;;;;;;;30.05;19.25;;;;;;;4.82;86.64;99108.41;5159591;27;20047;-65
2023/12/21 03:16:35;;;;;;;39.35;20.70;;;;;;;4.82;87.18;99111.84;5163244;27;20080;-66
2023/12/21 03:19:01;;;;;;;28.05;17.25;;;;;;;4.79;86.86;99112.13;5163045;27;20073;-66
2023/12/21 03:21:26;;;;;;;28.33;14.65;;;;;;;4.73;88.52;99114.50;5163191;27;20262;-66
2023/12/21 03:23:52;;;;;;;23.50;12.80;;;;;;;4.68;90.30;99107.03;5162288;27;20041;-64
2023/12/21 03:26:17;;;;;;;20.45;12.50;;;;;;;4.61;92.47;99092.00;5162755;27;20031;-67
2023/12/21 03:28:44;;;;;;;18.90;11.07;;;;;;;4.65;93.77;99090.78;5162545;27;20046;-64
2023/12/21 03:31:10;;;;;;;19.52;11.25;;;;;;;4.68;95.07;99085.25;5163108;27;20077;-67
2023/12/21 03:33:36;;;;;;;21.83;10.63;;;;;;;4.73;95.96;99094.34;5163540;27;20090;-66
2023/12/21 03:36:01;;;;;;;17.65;9.95;;;;;;;4.70;97.37;99088.56;5162981;27;20038;-66
2023/12/21 03:38:26;;;;;;;19.08;11.10;;;;;;;4.85;97.56;99087.13;5162816;27;20344;-65
2023/12/21 03:40:52;;;;;;;14.40;10.10;;;;;;;5.08;96.82;99085.00;5163538;27;20034;-64
2023/12/21 03:43:17;;;;;;;16.05;10.18;;;;;;;5.16;96.02;99081.66;5162377;27;20251;-66
2023/12/21 03:45:43;;;;;;;16.75;10.32;;;;;;;5.25;96.00;99088.69;5162119;27;20031;-67
2023/12/21 03:48:09;;;;;;;15.05;9.75;;;;;;;5.22;95.91;99086.38;5161653;27;20038;-67
2023/12/21 03:50:34;;;;;;;14.32;10.02;;;;;;;5.25;95.93;99089.53;5162339;27;20035;-67
2023/12/21 03:53:00;;;;;;;16.05;9.95;;;;;;;5.12;96.57;99096.88;5162552;27;20056;-66
2023/12/21 03:55:25;;;;;;;18.55;9.88;;;;;;;5.14;96.15;99090.50;5162490;27;20348;-65
2023/12/21 03:57:51;;;;;;;15.07;10.50;;;;;;;5.14;97.48;99095.75;5131847;27;20047;-65
2023/12/21 04:00:18;;;;;;;16.58;10.18;;;;;;;5.30;97.03;99097.81;5142161;27;20340;-67
2023/12/21 04:02:44;;;;;;;17.05;11.45;;;;;;;5.36;96.32;99094.59;5141187;27;20046;-67
2023/12/21 04:05:10;;;;;;;20.35;11.73;;;;;;;5.43;96.35;99086.97;5140835;27;20496;-67
2023/12/21 04:07:35;;;;;;;16.80;10.98;;;;;;;5.37;96.78;99091.00;5140969;27;20221;-65
2023/12/21 04:10:01;;;;;;;19.73;11.07;;;;;;;5.38;95.96;99083.94;5140668;27;20023;-66
2023/12/21 04:12:26;;;;;;;18.92;11.65;;;;;;;5.35;97.01;99090.31;5140440;27;20043;-67
2023/12/21 04:14:52;;;;;;;23.73;12.95;;;;;;;5.34;96.90;99090.47;5140244;27;20035;-67
2023/12/21 04:17:17;;;;;;;21.45;12.73;;;;;;;5.33;97.59;99094.88;5140154;27;20042;-64
2023/12/21 04:19:43;;;;;;;18.90;12.48;;;;;;;5.34;97.13;99086.03;5140455;27;20326;-64
2023/12/21 04:22:08;;;;;;;21.27;12.77;;;;;;;5.34;96.98;99087.84;5139775;27;20023;-66
2023/12/21 04:24:33;;;;;;;22.25;12.63;;;;;;;5.45;96.28;99083.22;5140013;27;20039;-64
2023/12/21 04:26:59;;;;;;;23.38;13.35;;;;;;;5.50;96.51;99084.59;5139060;27;20035;-67
2023/12/21 04:29:24;;;;;;;19.38;11.73;;;;;;;5.45;96.70;99072.72;5140757;27;20041;-67
2023/12/21 04:31:50;;;;;;;18.58;11.65;;;;;;;5.57;95.49;99077.78;5140337;27;20045;-67
2023/12/21 04:34:15;;;;;;;19.88;11.20;;;;;;;5.58;95.63;99080.25;5140055;27;20316;-67
2023/12/21 04:36:40;;;;;;;18.60;10.20;;;;;;;5.59;96.05;99081.09;5140653;27;20039;-64
2023/12/21 04:39:06;;;;;;;20.67;11.20;;;;;;;5.53;96.10;99087.75;5139824;27;20232;-64
2023/12/21 04:41:31;;;;;;;14.73;8.68;;;;;;;5.59;95.66;99088.97;5140189;27;20027;-65
2023/12/21 04:43:57;;;;;;;18.13;9.30;;;;;;;5.43;96.44;99085.16;5139978;27;20221;-64
2023/12/21 04:46:22;;;;;;;14.95;8.45;;;;;;;5.50;95.76;99084.59;5140647;27;20039;-64
2023/12/21 04:48:47;;;;;;;19.00;9.68;;;;;;;5.55;95.58;99087.59;5139658;27;20309;-64
2023/12/21 04:51:15;;;;;;;17.38;9.52;;;;;;;5.56;95.45;99084.81;5139349;27;20090;-67
2023/12/21 04:53:41;;;;;;;14.93;9.25;;;;;;;5.42;97.09;99088.75;5139626;27;20035;-65
2023/12/21 04:56:06;;;;;;;16.73;9.90;;;;;;;5.52;96.33;99093.97;5138566;27;20046;-64
2023/12/21 04:58:32;;;;;;;16.05;9.57;;;;;;;5.55;95.82;99101.56;5140134;27;20035;-67
2023/12/21 05:00:57;;;;;;;16.00;10.65;;;;;;;5.51;96.50;99097.56;5139358;27;20047;-65
2023/12/21 05:03:22;;;;;;;16.98;10.32;;;;;;;5.58;96.43;99103.06;5138958;27;20244;-64
2023/12/21 05:05:48;;;;;;;16.63;10.43;;;;;;;5.63;96.20;99111.34;5138674;27;20233;-65
2023/12/21 05:08:13;;;;;;;19.88;11.55;;;;;;;5.64;95.88;99110.34;5138386;27;20027;-64
2023/12/21 05:10:40;;;;;;;17.05;10.18;;;;;;;5.57;96.47;99114.53;5138609;27;20049;-65
2023/12/21 05:13:05;;;;;;;19.30;10.88;;;;;;;5.54;96.75;99115.66;5138650;27;20096;-67
2023/12/21 05:15:31;;;;;;;22.15;12.23;;;;;;;5.60;97.09;99119.50;5139565;27;20043;-64
2023/12/21 05:17:56;;;;;;;21.73;11.98;;;;;;;5.58;97.23;99116.19;5139062;27;20035;-64
2023/12/21 05:20:22;;;;;;;21.10;12.80;;;;;;;5.55;97.61;99116.47;5139020;27;20038;-67
2023/12/21 05:22:47;;;;;;;22.52;12.38;;;;;;;5.53;97.53;99116.63;5138597;27;20031;-65
2023/12/21 05:25:17;;;;;;;23.85;14.48;;;;;;;5.61;97.35;99110.66;5139280;27;20035;-66
2023/12/21 05:27:43;;;;;;;24.23;14.60;;;;;;;5.57;97.54;99110.13;5138812;27;20045;-67
2023/12/21 05:30:09;;;;;;;20.95;13.32;;;;;;;5.61;97.94;99116.72;5139380;27;20027;-66
2023/12/21 05:32:34;;;;;;;23.02;15.38;;;;;;;5.66;97.47;99119.75;5138810;27;20425;-67
2023/12/21 05:35:00;;;;;;;22.38;14.15;;;;;;;5.68;96.97;99117.81;5137635;27;20323;-65
2023/12/21 05:37:28;;;;;;;29.10;14.85;;;;;;;5.55;98.43;99121.75;5103082;27;20031;-64
2023/12/21 05:39:54;;;;;;;24.75;14.65;;;;;;;5.59;97.54;99120.47;5138105;27;20307;-67
2023/12/21 05:42:19;;;;;;;29.67;15.52;;;;;;;5.57;98.15;99117.16;5137960;27;20043;-65
2023/12/21 05:44:45;;;;;;;31.98;16.23;;;;;;;5.47;98.42;99119.00;5137906;27;20050;-66
2023/12/21 05:47:10;;;;;;;34.58;18.00;;;;;;;5.31;99.96;99115.19;5137576;27;20042;-64
2023/12/21 05:49:35;;;;;;;30.23;15.65;;;;;;;5.44;99.66;99120.13;5137594;27;20041;-67
2023/12/21 05:52:01;;;;;;;28.27;16.27;;;;;;;5.43;99.10;99118.47;5137454;27;20039;-66
2023/12/21 05:54:27;;;;;;;26.67;15.55;;;;;;;5.41;99.80;99126.50;5137487;27;20065;-64
2023/12/21 05:56:53;;;;;;;26.13;15.88;;;;;;;5.40;99.75;99129.25;5138410;27;20027;-67
2023/12/21 05:59:19;;;;;;;27.15;15.70;;;;;;;5.42;99.90;99130.78;5138305;27;20240;-64
2023/12/21 06:01:45;;;;;;;27.40;16.08;;;;;;;5.42;99.62;99128.16;5138359;27;20043;-65
2023/12/21 06:04:11;;;;;;;27.75;16.08;;;;;;;5.41;99.30;99133.53;5138688;27;20103;-65
2023/12/21 06:06:37;;;;;;;29.40;15.95;;;;;;;5.44;99.97;99138.50;5138636;27;20039;-66
2023/12/21 06:09:05;;;;;;;24.55;16.58;;;;;;;5.51;99.19;99144.00;5138219;27;20043;-67
2023/12/21 06:11:30;;;;;;;29.48;14.90;;;;;;;5.49;99.32;99138.91;5138308;27;20051;-64
2023/12/21 06:13:55;;;;;;;26.98;16.85;;;;;;;5.51;98.93;99139.59;5138626;27;20049;-66
2023/12/21 06:16:21;;;;;;;31.58;18.90;;;;;;;5.57;99.09;99144.25;5140300;27;20047;-64
2023/12/21 06:18:48;;;;;;;29.65;17.27;;;;;;;5.56;99.85;99136.53;5139848;27;20038;-67
2023/12/21 06:21:13;;;;;;;30.40;14.95;;;;;;;5.57;99.26;99148.69;5139540;27;20378;-64
2023/12/21 06:23:39;;;;;;;31.10;15.23;;;;;;;5.59;99.03;99147.56;5138970;27;20039;-67
2023/12/21 06:26:04;;;;;;;29.65;17.42;;;;;;;5.63;99.31;99142.84;5139827;27;20091;-66
2023/12/21 06:28:30;;;;;;;28.58;15.50;;;;;;;5.65;99.29;99146.16;5139198;27;20313;-67
2023/12/21 06:30:55;;;;;;;24.48;15.52;;;;;;;5.69;98.96;99144.91;5139754;27;20062;-65
2023/12/21 06:33:22;;;;;;;28.77;15.90;;;;;;;5.74;99.28;99148.75;5139346;27;20031;-64
2023/12/21 06:35:47;;;;;;;27.65;14.82;;;;;;;5.80;98.53;99147.31;5139215;27;20059;-67
2023/12/21 06:38:13;;;;;;;25.85;15.32;;;;;;;5.83;98.80;99138.31;5137848;27;20031;-65
2023/12/21 06:40:38;;;;;;;27.17;15.18;;;;;;;5.89;98.65;99146.47;5138252;27;20039;-65
2023/12/21 06:43:03;;;;;;;23.73;13.55;;;;;;;5.93;97.72;99150.47;5138209;27;20039;-64
2023/12/21 06:45:29;;;;;;;22.92;12.90;;;;;;;5.95;97.79;99148.53;5138717;27;20039;-67
2023/12/21 06:47:54;;;;;;;20.63;13.27;;;;;;;5.99;97.91;99152.50;5138367;27;20039;-64
2023/12/21 06:50:20;;;;;;;24.42;13.43;;;;;;;6.00;97.73;99138.41;5141858;27;20043;-65
2023/12/21 06:52:46;;;;;;;25.95;13.95;;;;;;;6.14;97.00;99147.56;5143021;27;20030;-64
2023/12/21 06:55:12;;;;;;;24.58;13.48;;;;;;;6.15;97.15;99135.25;5142727;27;20263;-64
2023/12/21 06:57:37;;;;;;;21.38;12.60;;;;;;;6.27;96.67;99145.44;5142510;27;20037;-67
2023/12/21 07:00:05;;;;;;;27.02;14.57;;;;;;;6.28;96.90;99149.72;5143349;27;20035;-66
2023/12/21 07:02:30;;;;;;;23.02;13.32;;;;;;;6.37;96.12;99143.56;5142122;27;20046;-65
2023/12/21 07:04:55;;;;;;;21.08;11.75;;;;;;;6.45;95.75;99139.34;5142657;27;20039;-64
2023/12/21 07:07:21;;;;;;;19.65;12.55;;;;;;;6.57;95.50;99146.88;5141826;27;20360;-66
2023/12/21 07:09:47;;;;;;;19.17;12.07;;;;;;;6.62;94.93;99139.34;5141977;27;20076;-64
2023/12/21 07:12:14;;;;;;;21.08;11.38;;;;;;;6.74;95.12;99142.56;5141699;27;20046;-65
2023/12/21 07:14:40;;;;;;;20.45;11.23;;;;;;;6.81;94.33;99137.53;5142020;27;20329;-65
2023/12/21 07:17:06;;;;;;;20.00;11.65;;;;;;;6.96;94.52;99147.34;5142666;27;20038;-65
2023/12/21 07:19:31;;;;;;;24.55;12.60;;;;;;;7.10;93.31;99153.84;5142460;27;20034;-65
2023/12/21 07:21:57;;;;;;;18.75;11.30;;;;;;;7.22;92.55;99162.31;5142075;27;20031;-67
2023/12/21 07:24:22;;;;;;;20.75;11.40;;;;;;;7.36;92.44;99159.16;5142149;27;20237;-67
2023/12/21 07:26:48;;;;;;;18.70;11.30;;;;;;;7.50;92.16;99163.03;5142594;27;20035;-62
2023/12/21 07:29:13;;;;;;;20.92;11.25;;;;;;;7.52;90.50;99159.25;5141709;27;20060;-62
2023/12/21 07:31:40;;;;;;;20.08;10.77;;;;;;;7.61;90.36;99160.94;5142151;27;20049;-64
2023/12/21 07:34:06;;;;;;;18.83;11.15;;;;;;;7.63;90.36;99163.41;5142524;27;20090;-62
2023/12/21 07:36:31;;;;;;;17.15;11.48;;;;;;;7.64;89.92;99165.91;5141861;27;20334;-62
2023/12/21 07:38:57;;;;;;;20.63;10.80;;;;;;;7.79;89.78;99170.56;5141354;27;21015;-65
2023/12/21 07:41:22;;;;;;;19.92;10.13;;;;;;;7.83;88.66;99170.09;5142377;27;20031;-63
2023/12/21 07:43:48;;;;;;;17.25;9.45;;;;;;;7.87;88.79;99173.25;5142010;27;20049;-64
2023/12/21 07:46:14;;;;;;;20.13;11.13;;;;;;;7.89;88.81;99180.00;5142054;27;20083;-64
2023/12/21 07:48:40;;;;;;;22.05;10.73;;;;;;;7.99;88.33;99185.97;5141264;27;20046;-64
2023/12/21 07:51:08;;;;;;;17.83;10.77;;;;;;;8.02;87.71;99171.66;5141231;27;20342;-65
2023/12/21 07:53:34;;;;;;;22.30;11.95;;;;;;;8.10;87.96;99178.75;5141821;27;20139;-63
2023/12/21 07:55:59;;;;;;;17.92;10.43;;;;;;;8.15;87.47;99169.38;5142026;27;20393;-63
2023/12/21 07:58:25;;;;;;;16.70;10.15;;;;;;;8.23;87.48;99176.50;5141447;27;20027;-62
2023/12/21 08:00:50;;;;;;;18.92;11.52;;;;;;;8.29;87.73;99173.22;5139682;27;20096;-62
2023/12/21 08:03:15;;;;;;;16.80;10.02;;;;;;;8.38;86.77;99168.84;5140758;27;20039;-64
2023/12/21 08:05:41;;;;;;;17.67;9.98;;;;;;;8.41;86.47;99171.16;5140910;27;20034;-62
2023/12/21 08:08:06;;;;;;;16.25;10.13;;;;;;;8.44;87.24;99173.47;5140647;27;20500;-62
2023/12/21 08:10:32;;;;;;;16.77;10.95;;;;;;;8.44;86.39;99174.28;5141550;27;20038;-64
2023/12/21 08:13:00;;;;;;;15.20;9.25;;;;;;;8.59;86.42;99174.47;5141621;27;20259;-67
2023/12/21 08:15:26;;;;;;;14.60;9.45;;;;;;;8.65;85.96;99176.47;5142031;27;20063;-63
2023/12/21 08:17:55;;;;;;;16.42;9.35;;;;;;;8.66;85.11;99175.47;5141632;27;20047;-62
2023/12/21 08:20:24;;;;;;;17.65;9.85;;;;;;;8.79;85.43;99172.34;5141093;27;20039;-64
2023/12/21 08:22:49;;;;;;;15.27;9.70;;;;;;;8.82;84.67;99177.28;5140824;27;20054;-62
2023/12/21 08:25:15;;;;;;;17.90;9.25;;;;;;;8.89;84.91;99171.19;5140649;27;20039;-64
2023/12/21 08:27:43;;;;;;;13.20;9.43;;;;;;;8.94;83.66;99176.81;5140199;27;20443;-64
2023/12/21 08:30:10;;;;;;;14.25;8.10;;;;;;;8.84;82.47;99175.31;5140319;27;20027;-61
2023/12/21 08:32:36;;;;;;;13.80;8.55;;;;;;;8.95;83.79;99172.34;5140378;27;20224;-64
2023/12/21 08:35:01;;;;;;;14.88;8.80;;;;;;;9.04;83.04;99179.28;5140492;27;20031;-64
2023/12/21 08:37:27;;;;;;;15.70;8.32;;;;;;;9.18;83.93;99167.22;5139282;27;20027;-67
2023/12/21 08:39:52;;;;;;;12.55;7.93;;;;;;;9.27;82.89;99169.69;5139797;27;20065;-65
2023/12/21 08:42:18;;;;;;;19.30;9.50;;;;;;;9.34;82.71;99169.81;5140056;27;20038;-65
2023/12/21 08:44:43;;;;;;;13.20;8.57;;;;;;;9.37;82.64;99171.34;5140236;27;20035;-67
2023/12/21 08:47:08;;;;;;;13.05;8.55;;;;;;;9.29;81.24;99156.28;5139628;27;20099;-65
2023/12/21 08:49:34;;;;;;;16.05;9.30;;;;;;;9.33;81.75;99154.16;5140264;27;20060;-65
2023/12/21 08:52:00;;;;;;;15.40;9.27;;;;;;;9.40;82.04;99155.16;5140176;27;20080;-67
2023/12/21 08:54:25;;;;;;;14.45;8.70;;;;;;;9.48;82.29;99155.94;5139861;27;20232;-65
2023/12/21 08:56:51;;;;;;;15.23;8.68;;;;;;;9.53;80.74;99152.81;5139605;27;20027;-65
2023/12/21 08:59:17;;;;;;;12.38;7.72;;;;;;;9.53;81.29;99147.50;5139073;27;20337;-65
2023/12/21 09:01:43;;;;;;;15.70;8.77;;;;;;;9.56;80.69;99148.00;5138852;27;20285;-67
2023/12/21 09:04:08;;;;;;;11.63;7.32;;;;;;;9.57;80.27;99133.78;5138932;27;20269;-64
2023/12/21 09:06:34;;;;;;;11.80;7.70;;;;;;;9.63;80.43;99129.66;5139452;27;20084;-67
2023/12/21 09:08:59;;;;;;;12.25;7.45;;;;;;;9.60;80.93;99130.81;5139200;27;20051;-67
2023/12/21 09:11:26;;;;;;;13.90;8.45;;;;;;;9.69;81.54;99126.31;5139025;27;20035;-65
2023/12/21 09:13:51;;;;;;;14.77;8.43;;;;;;;9.74;80.83;99123.16;5138963;27;20217;-64
2023/12/21 09:16:17;;;;;;;12.90;7.80;;;;;;;9.74;80.83;99123.16;5139569;27;20035;-66
2023/12/21 09:18:46;;;;;;;12.95;7.82;;;;;;;9.78;81.34;99100.66;5139370;27;20031;-65
2023/12/21 09:21:12;;;;;;;12.13;7.57;;;;;;;9.81;80.60;99101.16;5138555;27;20039;-65
2023/12/21 09:23:39;;;;;;;13.57;7.50;;;;;;;9.80;79.26;99099.50;5138430;27;20073;-63
2023/12/21 09:26:08;;;;;;;10.85;6.70;;;;;;;9.83;80.21;99088.56;5139162;27;20516;-67
2023/12/21 09:28:35;;;;;;;12.70;6.65;;;;;;;9.82;79.32;99080.81;5138340;27;20035;-62
2023/12/21 09:31:00;;;;;;;11.48;6.97;;;;;;;9.92;80.46;99079.59;5139239;27;20043;-65
2023/12/21 09:33:26;;;;;;;12.75;6.40;;;;;;;9.95;79.88;99078.44;5139203;27;20462;-63
2023/12/21 09:35:54;;;;;;;11.88;7.53;;;;;;;10.02;80.04;99073.25;5139262;27;20039;-61
2023/12/21 09:38:20;;;;;;;12.98;7.25;;;;;;;10.08;79.69;99067.28;5140033;27;20030;-65
2023/12/21 09:40:45;;;;;;;11.32;6.65;;;;;;;10.03;79.61;99056.41;5140186;27;20038;-64
2023/12/21 09:43:16;;;;;;;9.25;6.53;;;;;;;10.08;79.08;99064.63;5139399;27;20255;-63
2023/12/21 09:45:46;;;;;;;10.77;6.07;;;;;;;10.12;79.24;99048.22;5139541;27;20031;-62
2023/12/21 09:48:15;;;;;;;11.45;6.32;;;;;;;10.17;78.31;99042.41;5138194;27;20328;-65
2023/12/21 09:50:43;;;;;;;10.52;6.13;;;;;;;10.21;79.30;99043.72;5138806;27;20041;-63
2023/12/21 09:53:12;;;;;;;12.52;7.60;;;;;;;10.24;78.62;99041.56;5138001;27;20415;-65
2023/12/21 09:55:40;;;;;;;13.18;7.35;;;;;;;10.34;80.15;99033.38;5138866;27;20038;-62
2023/12/21 09:58:08;;;;;;;11.43;7.18;;;;;;;10.41;79.88;99038.81;5139518;27;20048;-64
2023/12/21 10:00:34;;;;;;;13.02;7.20;;;;;;;10.46;79.61;99039.94;5139888;27;20084;-64
2023/12/21 10:03:00;;;;;;;10.20;7.22;;;;;;;10.49;79.66;99028.97;5139079;27;20102;-64
2023/12/21 10:05:25;;;;;;;13.15;7.18;;;;;;;10.58;79.26;99035.03;5139471;27;20031;-62
2023/12/21 10:07:51;;;;;;;9.68;6.60;;;;;;;10.65;79.15;99025.38;5138965;27;20047;-63
2023/12/21 10:10:17;;;;;;;15.30;11.27;;;;;;;10.69;78.46;99024.00;5139494;27;20046;-62
2023/12/21 10:12:43;;;;;;;12.02;7.28;;;;;;;10.76;78.92;99022.28;5139229;27;20052;-64
2023/12/21 10:15:10;;;;;;;11.80;7.75;;;;;;;10.83;78.50;99022.38;5139749;27;20034;-63
2023/12/21 10:17:37;;;;;;;12.45;8.23;;;;;;;10.87;77.49;99021.84;5139376;27;20077;-64
2023/12/21 10:20:04;;;;;;;14.25;8.07;;;;;;;10.89;78.62;99013.69;5139427;27;20043;-64
2023/12/21 10:22:29;;;;;;;11.10;6.88;;;;;;;10.95;76.83;99025.41;5139407;27;20039;-62
2023/12/21 10:24:55;;;;;;;12.57;5.70;;;;;;;10.99;75.02;99016.91;5138323;27;20298;-65
2023/12/21 10:27:21;;;;;;;14.25;5.30;;;;;;;11.03;72.89;99006.75;5138561;27;20079;-64
2023/12/21 10:29:58;;;;;;;9.93;6.03;;;;;;;11.03;72.10;98994.34;5138196;27;20088;-64
2023/12/21 10:32:24;;;;;;;9.10;5.53;;;;;;;11.09;71.44;98998.91;5138350;27;20243;-64
2023/12/21 10:34:49;;;;;;;12.00;5.93;;;;;;;11.11;71.74;98996.91;5138051;27;20078;-62
2023/12/21 10:37:15;;;;;;;9.00;5.32;;;;;;;11.15;70.75;98998.19;5138542;27;20039;-64
2023/12/21 10:39:41;;;;;;;7.20;5.30;;;;;;;11.17;71.82;98998.81;5138724;27;20039;-64
2023/12/21 10:42:07;;;;;;;9.07;5.32;;;;;;;11.23;71.62;99004.38;5137507;27;20043;-64
2023/12/21 10:44:33;;;;;;;8.18;4.78;;;;;;;11.28;71.64;99000.19;5138200;27;20031;-62
2023/12/21 10:47:00;;;;;;;9.32;5.20;;;;;;;11.31;71.25;98996.34;5138048;27;20035;-63
2023/12/21 10:49:27;;;;;;;8.75;5.15;;;;;;;11.32;70.39;98998.78;5138514;27;20053;-64
2023/12/21 10:51:54;;;;;;;8.90;5.72;;;;;;;11.33;70.31;98989.84;5138519;27;20066;-62
2023/12/21 10:54:22;;;;;;;7.90;4.65;;;;;;;11.30;69.16;98984.09;5138454;27;20046;-63
2023/12/21 10:56:48;;;;;;;7.72;5.25;;;;;;;11.35;68.37;98987.00;5139017;27;20110;-64
2023/12/21 10:59:14;;;;;;;9.35;5.20;;;;;;;11.30;68.66;98976.97;5138467;27;20104;-62
2023/12/21 11:01:40;;;;;;;9.60;5.10;;;;;;;11.33;69.82;98981.06;5138448;27;20050;-62
2023/12/21 11:04:11;;;;;;;6.95;4.43;;;;;;;11.31;68.34;98986.56;5138525;27;20103;-62
2023/12/21 11:06:38;;;;;;;7.60;4.78;;;;;;;11.30;69.30;98974.31;5138838;27;20309;-63
2023/12/21 11:09:06;;;;;;;7.68;4.65;;;;;;;11.32;69.79;98976.78;5138930;27;20245;-62
2023/12/21 11:11:31;;;;;;;7.20;4.95;;;;;;;11.34;69.45;98969.47;5139000;27;20039;-62
2023/12/21 11:13:57;;;;;;;9.60;5.15;;;;;;;11.31;70.00;98975.13;5138362;27;20342;-64
2023/12/21 11:16:28;;;;;;;7.80;5.38;;;;;;;11.35;70.43;98977.22;5138229;27;20038;-64
2023/12/21 11:18:56;;;;;;;7.65;5.72;;;;;;;11.37;70.66;98975.22;5137910;27;20116;-62
2023/12/21 11:21:24;;;;;;;8.20;5.35;;;;;;;11.30;71.63;98969.00;5138088;27;20086;-62